createdAt,value
2019-01-21T00:00:33.701Z,-3.30
2019-01-21T00:03:01.998Z,-3.30
2019-01-21T00:05:30.276Z,-3.40
2019-01-21T00:08:00.494Z,-3.40
2019-01-21T00:10:28.738Z,-3.40
2019-01-21T00:12:57.047Z,-3.40
2019-01-21T00:15:25.315Z,-3.40
2019-01-21T00:17:53.583Z,-3.40
2019-01-21T00:20:21.866Z,-3.40
2019-01-21T00:22:50.209Z,-3.40
2019-01-21T00:25:18.482Z,-3.40
2019-01-21T00:27:46.753Z,-3.40
2019-01-21T00:30:15.023Z,-3.50
2019-01-21T00:32:43.303Z,-3.40
2019-01-21T00:35:11.541Z,-3.40
2019-01-21T00:37:39.808Z,-3.50
2019-01-21T00:40:13.543Z,-3.60
2019-01-21T00:42:41.826Z,-3.70
2019-01-21T00:45:10.083Z,-3.60
2019-01-21T00:47:38.344Z,-3.60
2019-01-21T00:50:09.441Z,-3.60
2019-01-21T00:52:37.695Z,-3.50
2019-01-21T00:55:08.282Z,-3.60
2019-01-21T00:57:36.559Z,-3.70
2019-01-21T01:00:11.221Z,-3.70
2019-01-21T01:02:39.497Z,-3.60
2019-01-21T01:05:08.583Z,-3.60
2019-01-21T01:07:36.827Z,-3.60
2019-01-21T01:10:08.050Z,-3.50
2019-01-21T01:12:36.321Z,-3.50
2019-01-21T01:15:06.834Z,-3.60
2019-01-21T01:17:37.231Z,-3.70
2019-01-21T01:20:08.338Z,-3.70
2019-01-21T01:22:36.605Z,-3.60
2019-01-21T01:25:05.804Z,-3.60
2019-01-21T01:27:34.078Z,-3.60
2019-01-21T01:30:02.346Z,-3.60
2019-01-21T01:32:30.596Z,-3.70
2019-01-21T01:34:58.855Z,-3.80
2019-01-21T01:37:27.103Z,-3.80
2019-01-21T01:39:55.359Z,-3.70
2019-01-21T01:42:23.622Z,-3.70
2019-01-21T01:44:51.900Z,-3.80
2019-01-21T01:47:20.163Z,-3.80
2019-01-21T01:49:48.461Z,-3.80
2019-01-21T01:52:16.703Z,-3.80
2019-01-21T01:54:44.963Z,-3.80
2019-01-21T01:57:13.374Z,-3.80
2019-01-21T01:59:41.631Z,-3.90
2019-01-21T02:02:09.879Z,-3.80
2019-01-21T02:04:38.158Z,-3.80
2019-01-21T02:07:07.025Z,-3.80
2019-01-21T02:09:35.309Z,-3.80
2019-01-21T02:12:03.548Z,-3.80
2019-01-21T02:14:31.807Z,-3.90
2019-01-21T02:17:00.069Z,-3.90
2019-01-21T02:19:28.993Z,-3.80
2019-01-21T02:21:57.691Z,-4.00
2019-01-21T02:24:27.610Z,-3.90
2019-01-21T02:26:59.107Z,-3.80
2019-01-21T02:29:30.637Z,-3.80
2019-01-21T02:32:05.309Z,-3.80
2019-01-21T02:34:39.690Z,-3.80
2019-01-21T02:37:33.598Z,-3.80
2019-01-21T02:40:13.843Z,-3.80
2019-01-21T02:43:15.307Z,-3.80
2019-01-21T02:46:02.364Z,-3.70
2019-01-21T02:48:42.611Z,-3.80
2019-01-21T02:51:38.469Z,-3.80
2019-01-21T02:54:18.505Z,-3.80
2019-01-21T02:56:58.515Z,-3.80
2019-01-21T02:59:35.162Z,-3.80
2019-01-21T03:02:12.458Z,-3.80
2019-01-21T03:05:04.730Z,-3.80
2019-01-21T03:07:52.815Z,-3.90
2019-01-21T03:10:36.363Z,-3.90
2019-01-21T03:13:27.520Z,-3.90
2019-01-21T03:16:11.010Z,-3.90
2019-01-21T03:18:54.595Z,-3.90
2019-01-21T03:21:38.009Z,-3.90
2019-01-21T03:24:14.951Z,-3.90
2019-01-21T03:27:16.986Z,-3.90
2019-01-21T03:30:06.642Z,-3.80
2019-01-21T03:32:56.331Z,-3.80
2019-01-21T03:36:01.841Z,-3.80
2019-01-21T03:38:41.883Z,-3.80
2019-01-21T03:41:22.261Z,-3.80
2019-01-21T03:44:09.028Z,-3.80
2019-01-21T03:46:43.482Z,-3.80
2019-01-21T03:49:27.024Z,-3.90
2019-01-21T03:52:37.110Z,-3.90
2019-01-21T03:55:08.687Z,-3.80
2019-01-21T03:58:01.507Z,-3.80
2019-01-21T04:00:35.818Z,-3.80
2019-01-21T04:03:28.169Z,-3.70
2019-01-21T04:06:03.015Z,-3.70
2019-01-21T04:08:42.888Z,-3.90
2019-01-21T04:11:22.996Z,-3.90
2019-01-21T04:14:24.455Z,-3.90
2019-01-21T04:17:16.367Z,-3.90
2019-01-21T04:19:50.862Z,-3.80
2019-01-21T04:22:54.238Z,-3.90
2019-01-21T04:25:50.322Z,-3.90
2019-01-21T04:28:27.669Z,-4.00
2019-01-21T04:31:28.128Z,-4.00
2019-01-21T04:34:02.193Z,-3.90
2019-01-21T04:36:57.881Z,-4.00
2019-01-21T04:39:29.480Z,-3.90
2019-01-21T04:42:16.053Z,-3.90
2019-01-21T04:45:15.831Z,-3.90
2019-01-21T04:47:56.634Z,-3.90
2019-01-21T04:50:40.005Z,-4.00
2019-01-21T04:53:16.865Z,-4.10
2019-01-21T04:56:11.159Z,-4.10
2019-01-21T04:59:03.396Z,-4.10
2019-01-21T05:01:37.475Z,-4.10
2019-01-21T05:04:11.765Z,-4.10
2019-01-21T05:06:58.087Z,-4.10
2019-01-21T05:10:02.920Z,-4.10
2019-01-21T05:12:46.450Z,-4.00
2019-01-21T05:15:42.128Z,-4.00
2019-01-21T05:18:28.581Z,-4.00
2019-01-21T05:21:18.782Z,-4.00
2019-01-21T05:24:18.987Z,-4.00
2019-01-21T05:26:53.150Z,-3.90
2019-01-21T05:29:36.805Z,-4.00
2019-01-21T05:32:11.247Z,-3.90
2019-01-21T05:34:59.492Z,-3.90
2019-01-21T05:37:42.903Z,-4.00
2019-01-21T05:40:20.382Z,-4.00
2019-01-21T05:43:04.193Z,-3.90
2019-01-21T05:45:53.940Z,-3.90
2019-01-21T05:48:28.506Z,-4.00
2019-01-21T05:51:12.308Z,-4.10
2019-01-21T05:53:43.807Z,-4.20
2019-01-21T05:56:21.586Z,-4.20
2019-01-21T05:59:09.803Z,-4.20
2019-01-21T06:01:56.150Z,-4.20
2019-01-21T06:04:45.365Z,-4.30
2019-01-21T06:07:29.019Z,-4.40
2019-01-21T06:10:15.591Z,-4.30
2019-01-21T06:13:05.084Z,-4.20
2019-01-21T06:16:00.882Z,-4.10
2019-01-21T06:18:44.604Z,-4.10
2019-01-21T06:21:16.144Z,-4.00
2019-01-21T06:23:59.724Z,-4.10
2019-01-21T06:26:51.752Z,-4.10
2019-01-21T06:29:23.252Z,-3.90
2019-01-21T06:32:28.477Z,-3.90
2019-01-21T06:35:08.562Z,-3.90
2019-01-21T06:37:45.872Z,-4.10
2019-01-21T06:40:29.248Z,-4.10
2019-01-21T06:43:06.598Z,-4.00
2019-01-21T06:45:40.998Z,-4.10
2019-01-21T06:48:43.092Z,-4.00
2019-01-21T06:51:35.199Z,-4.10
2019-01-21T06:54:15.369Z,-4.00
2019-01-21T06:57:17.463Z,-4.00
2019-01-21T07:00:00.694Z,-4.00
2019-01-21T07:02:51.402Z,-4.00
2019-01-21T07:05:51.653Z,-4.00
2019-01-21T07:08:35.431Z,-4.00
2019-01-21T07:11:25.171Z,-4.10
2019-01-21T07:14:05.310Z,-4.00
2019-01-21T07:16:52.355Z,-4.00
2019-01-21T07:19:29.057Z,-3.90
2019-01-21T07:22:12.601Z,-4.00
2019-01-21T07:24:58.427Z,-4.10
2019-01-21T07:27:29.989Z,-4.10
2019-01-21T07:30:20.970Z,-4.00
2019-01-21T07:33:12.040Z,-4.00
2019-01-21T07:35:55.661Z,-3.90
2019-01-21T07:38:41.968Z,-4.00
2019-01-21T07:41:22.257Z,-4.00
2019-01-21T07:44:08.942Z,-3.80
2019-01-21T07:46:43.289Z,-3.80
2019-01-21T07:50:04.145Z,-3.80
2019-01-21T07:52:47.302Z,-3.80
2019-01-21T07:55:33.607Z,-3.90
2019-01-21T07:58:27.667Z,-3.90
2019-01-21T08:01:05.389Z,-3.80
2019-01-21T08:04:08.927Z,-3.80
2019-01-21T08:06:51.848Z,-3.80
2019-01-21T08:09:31.930Z,-3.70
2019-01-21T08:12:32.316Z,-3.40
2019-01-21T08:15:12.559Z,-3.50
2019-01-21T08:17:58.260Z,-3.50
2019-01-21T08:20:32.766Z,-3.60
2019-01-21T08:23:16.402Z,-3.50
2019-01-21T08:25:56.955Z,-3.60
2019-01-21T08:28:43.754Z,-3.60
2019-01-21T08:31:34.971Z,-3.60
2019-01-21T08:34:09.238Z,-3.60
2019-01-21T08:36:43.646Z,-3.60
2019-01-21T08:39:15.157Z,-3.50
2019-01-21T08:41:54.357Z,-3.50
2019-01-21T08:44:37.761Z,-3.60
2019-01-21T08:47:15.093Z,-3.50
2019-01-21T08:50:09.772Z,-3.50
2019-01-21T08:52:59.363Z,-3.60
2019-01-21T08:55:39.735Z,-3.00
2019-01-21T08:58:38.753Z,-3.40
2019-01-21T09:01:19.210Z,-3.40
2019-01-21T09:04:13.440Z,-3.40
2019-01-21T09:06:47.623Z,-3.40
2019-01-21T09:09:31.085Z,-3.20
2019-01-21T09:12:22.528Z,-3.30
2019-01-21T09:14:54.123Z,-3.30
2019-01-21T09:17:49.742Z,-3.40
2019-01-21T09:20:39.401Z,-3.40
2019-01-21T09:23:31.815Z,-3.30
2019-01-21T09:26:18.548Z,-3.30
2019-01-21T09:29:08.130Z,-3.40
2019-01-21T09:32:03.799Z,-3.30
2019-01-21T09:34:47.159Z,-3.20
2019-01-21T09:37:36.944Z,-3.20
2019-01-21T09:40:11.206Z,-3.20
2019-01-21T09:42:52.010Z,-3.10
2019-01-21T09:45:51.031Z,-3.00
2019-01-21T09:48:18.403Z,-3.00
2019-01-21T09:50:46.663Z,-3.00
2019-01-21T09:53:14.928Z,-3.10
2019-01-21T09:56:02.619Z,-3.00
2019-01-21T09:58:31.238Z,-3.00
2019-01-21T10:00:59.489Z,-3.00
2019-01-21T10:03:27.757Z,-3.10
2019-01-21T10:05:59.275Z,-3.00
2019-01-21T10:08:30.789Z,-3.00
2019-01-21T10:11:29.747Z,-3.00
2019-01-21T10:14:12.684Z,-3.10
2019-01-21T10:16:44.194Z,-3.10
2019-01-21T10:19:42.510Z,-3.10
2019-01-21T10:22:16.782Z,-3.00
2019-01-21T10:25:00.167Z,-3.10
2019-01-21T10:27:56.083Z,-3.10
2019-01-21T10:30:49.003Z,-3.00
2019-01-21T10:33:35.789Z,-3.00
2019-01-21T10:36:24.003Z,-3.00
2019-01-21T10:39:27.535Z,-3.00
2019-01-21T10:42:11.193Z,-3.00
2019-01-21T10:44:54.739Z,-3.10
2019-01-21T10:47:28.930Z,-2.90
2019-01-21T10:50:12.313Z,-2.80
2019-01-21T10:53:01.876Z,-3.10
2019-01-21T10:55:42.172Z,-3.20
2019-01-21T10:58:16.287Z,-3.10
2019-01-21T11:01:07.275Z,-3.10
2019-01-21T11:03:58.554Z,-3.10
2019-01-21T11:06:52.491Z,-3.10
2019-01-21T11:09:39.411Z,-3.10
2019-01-21T11:12:22.810Z,-3.00
2019-01-21T11:15:00.025Z,-3.30
2019-01-21T11:17:40.271Z,-3.50
2019-01-21T11:20:44.877Z,-3.30
2019-01-21T11:23:25.339Z,-3.20
2019-01-21T11:26:13.472Z,-3.10
2019-01-21T11:29:20.276Z,-3.00
2019-01-21T11:32:16.154Z,-2.80
2019-01-21T11:34:48.035Z,-2.90
2019-01-21T11:37:49.955Z,-3.00
2019-01-21T11:40:30.397Z,-3.00
2019-01-21T11:43:19.662Z,-3.10
2019-01-21T11:46:00.189Z,-3.10
2019-01-21T11:48:46.759Z,-3.20
2019-01-21T11:51:20.965Z,-3.20
2019-01-21T11:54:22.072Z,-3.10
2019-01-21T11:56:59.148Z,-3.20
2019-01-21T11:59:49.042Z,-3.20
2019-01-21T12:02:29.807Z,-3.20
2019-01-21T12:05:10.267Z,-3.20
2019-01-21T12:07:59.615Z,-3.20
2019-01-21T12:10:46.168Z,-2.90
2019-01-21T12:13:40.658Z,-2.70
2019-01-21T12:16:24.035Z,-2.70
2019-01-21T12:19:14.799Z,-2.70
2019-01-21T12:22:04.574Z,-2.50
2019-01-21T12:24:32.940Z,-2.70
2019-01-21T12:27:19.189Z,-2.90
2019-01-21T12:29:59.531Z,-3.00
2019-01-21T12:32:43.110Z,-3.10
2019-01-21T12:35:29.581Z,-3.20
2019-01-21T12:38:10.073Z,-3.40
2019-01-21T12:40:50.079Z,-3.40
2019-01-21T12:43:33.491Z,-3.30
2019-01-21T12:46:26.451Z,-3.30
2019-01-21T12:49:04.231Z,-3.20
2019-01-21T12:51:35.809Z,-3.20
2019-01-21T12:54:13.364Z,-3.20
2019-01-21T12:56:59.978Z,-3.10
2019-01-21T12:59:45.834Z,-3.20
2019-01-21T13:02:45.060Z,-3.10
2019-01-21T13:05:22.062Z,-3.20
2019-01-21T13:07:56.223Z,-3.20
2019-01-21T13:10:39.540Z,-3.20
2019-01-21T13:13:27.947Z,-3.40
2019-01-21T13:16:19.250Z,-3.40
2019-01-21T13:19:07.420Z,-3.30
2019-01-21T13:21:38.979Z,-3.40
2019-01-21T13:24:12.956Z,-3.40
2019-01-21T13:26:59.479Z,-3.30
2019-01-21T13:29:33.636Z,-3.30
2019-01-21T13:32:07.819Z,-2.90
2019-01-21T13:34:51.230Z,-2.60
2019-01-21T13:37:28.533Z,-2.80
2019-01-21T13:40:16.907Z,-2.90
2019-01-21T13:42:54.535Z,-3.00
2019-01-21T13:45:57.921Z,-3.20
2019-01-21T13:48:32.319Z,-3.20
2019-01-21T13:51:09.510Z,-3.20
2019-01-21T13:53:55.621Z,-3.20
2019-01-21T13:56:29.927Z,-3.30
2019-01-21T13:59:04.214Z,-3.40
2019-01-21T14:01:56.646Z,-3.40
2019-01-21T14:04:43.131Z,-3.20
2019-01-21T14:07:35.975Z,-3.20
2019-01-21T14:10:33.309Z,-3.20
2019-01-21T14:13:26.416Z,-3.10
2019-01-21T14:16:18.668Z,-3.30
2019-01-21T14:18:57.315Z,-3.30
2019-01-21T14:21:51.348Z,-3.30
2019-01-21T14:24:25.722Z,-3.20
2019-01-21T14:27:13.698Z,-3.30
2019-01-21T14:29:57.235Z,-3.30
2019-01-21T14:32:40.880Z,-3.20
2019-01-21T14:35:38.010Z,-3.40
2019-01-21T14:38:18.521Z,-3.50
2019-01-21T14:40:55.345Z,-3.50
2019-01-21T14:43:51.322Z,-3.60
2019-01-21T14:46:22.857Z,-3.60
2019-01-21T14:48:54.406Z,-3.70
2019-01-21T14:51:51.548Z,-3.70
2019-01-21T14:54:23.064Z,-3.70
2019-01-21T14:57:00.324Z,-3.70
2019-01-21T14:59:47.010Z,-3.70
2019-01-21T15:02:35.069Z,-3.60
2019-01-21T15:05:12.487Z,-3.60
2019-01-21T15:07:43.994Z,-3.50
2019-01-21T15:10:36.230Z,-3.60
2019-01-21T15:13:22.981Z,-3.70
2019-01-21T15:15:57.366Z,-3.70
2019-01-21T15:18:34.442Z,-3.70
2019-01-21T15:21:38.751Z,-3.80
2019-01-21T15:24:10.312Z,-3.80
2019-01-21T15:26:50.486Z,-3.80
2019-01-21T15:29:40.239Z,-3.90
2019-01-21T15:32:17.613Z,-3.90
2019-01-21T15:35:00.545Z,-3.90
2019-01-21T15:37:40.835Z,-4.00
2019-01-21T15:40:46.171Z,-3.90
2019-01-21T15:43:27.007Z,-4.00
2019-01-21T15:45:58.698Z,-3.90
2019-01-21T15:48:38.913Z,-3.80
2019-01-21T15:51:19.420Z,-3.80
2019-01-21T15:54:05.934Z,-3.80
2019-01-21T15:56:58.350Z,-3.80
2019-01-21T15:59:44.549Z,-3.80
2019-01-21T16:02:18.601Z,-3.90
2019-01-21T16:05:01.711Z,-4.00
2019-01-21T16:07:41.899Z,-3.90
2019-01-21T16:10:21.807Z,-3.90
2019-01-21T16:13:05.213Z,-4.00
2019-01-21T16:15:45.649Z,-4.00
2019-01-21T16:18:32.257Z,-3.90
2019-01-21T16:21:15.763Z,-4.00
2019-01-21T16:24:21.147Z,-4.00
2019-01-21T16:27:10.440Z,-3.90
2019-01-21T16:29:41.975Z,-3.90
2019-01-21T16:32:10.241Z,-3.90
2019-01-21T16:34:41.740Z,-4.00
2019-01-21T16:37:44.591Z,-4.00
2019-01-21T16:40:19.022Z,-4.00
2019-01-21T16:42:47.258Z,-4.00
2019-01-21T16:45:15.545Z,-4.10
2019-01-21T16:47:43.800Z,-4.00
2019-01-21T16:50:12.114Z,-4.00
2019-01-21T16:52:40.433Z,-3.90
2019-01-21T16:55:09.105Z,-3.90
2019-01-21T16:57:37.347Z,-4.00
2019-01-21T17:00:11.780Z,-3.90
2019-01-21T17:02:40.032Z,-3.90
2019-01-21T17:05:10.738Z,-3.90
2019-01-21T17:07:38.983Z,-3.90
2019-01-21T17:10:10.364Z,-3.90
2019-01-21T17:12:38.608Z,-4.00
2019-01-21T17:15:11.836Z,-4.00
2019-01-21T17:17:40.111Z,-4.00
2019-01-21T17:20:11.664Z,-4.00
2019-01-21T17:22:39.927Z,-4.00
2019-01-21T17:25:09.003Z,-4.00
2019-01-21T17:27:37.255Z,-4.00
2019-01-21T17:30:11.964Z,-4.00
2019-01-21T17:32:40.234Z,-3.80
2019-01-21T17:35:10.134Z,-3.90
2019-01-21T17:37:38.432Z,-4.20
2019-01-21T17:40:10.205Z,-4.20
2019-01-21T17:42:38.491Z,-4.20
2019-01-21T17:45:12.496Z,-4.20
2019-01-21T17:47:40.738Z,-4.20
2019-01-21T17:50:11.438Z,-4.20
2019-01-21T17:52:39.719Z,-4.20
2019-01-21T17:55:07.956Z,-4.10
2019-01-21T17:57:36.227Z,-4.00
2019-01-21T18:00:07.871Z,-2.40
2019-01-21T18:02:36.191Z,-2.90
2019-01-21T18:05:06.191Z,-3.40
2019-01-21T18:07:34.468Z,-3.70
2019-01-21T18:10:02.808Z,-3.90
2019-01-21T18:12:31.126Z,-3.90
2019-01-21T18:14:59.382Z,-4.00
2019-01-21T18:17:27.762Z,-4.10
2019-01-21T18:19:56.009Z,-4.10
2019-01-21T18:22:24.270Z,-4.10
2019-01-21T18:24:52.516Z,-4.20
2019-01-21T18:27:20.771Z,-4.20
2019-01-21T18:29:49.016Z,-4.20
2019-01-21T18:32:17.293Z,-4.20
2019-01-21T18:34:45.625Z,-4.20
2019-01-21T18:37:13.896Z,-4.20
2019-01-21T18:39:42.158Z,-4.20
2019-01-21T18:42:10.472Z,-4.30
2019-01-21T18:44:38.717Z,-4.40
2019-01-21T18:47:06.966Z,-4.40
2019-01-21T18:49:35.229Z,-4.40
2019-01-21T18:52:03.493Z,-4.40
2019-01-21T18:54:31.759Z,-4.40
2019-01-21T18:57:00.086Z,-4.30
2019-01-21T18:59:28.325Z,-4.30
2019-01-21T19:01:56.608Z,-4.20
2019-01-21T19:04:24.848Z,-4.20
2019-01-21T19:06:53.120Z,-4.20
2019-01-21T19:09:21.385Z,-4.30
2019-01-21T19:11:49.659Z,-4.20
2019-01-21T19:14:17.917Z,-4.20
2019-01-21T19:16:46.193Z,-4.20
2019-01-21T19:19:14.458Z,-4.20
2019-01-21T19:21:42.750Z,-4.20
2019-01-21T19:24:11.239Z,-4.20
2019-01-21T19:26:48.126Z,-4.20
2019-01-21T19:29:16.432Z,-4.20
2019-01-21T19:31:45.631Z,-4.20
2019-01-21T19:34:13.891Z,-4.30
2019-01-21T19:36:42.174Z,-4.20
2019-01-21T19:39:10.434Z,-4.20
2019-01-21T19:41:38.702Z,-4.20
2019-01-21T19:44:06.947Z,-4.20
2019-01-21T19:46:35.231Z,-4.10
2019-01-21T19:49:03.483Z,-4.10
2019-01-21T19:51:31.747Z,-4.10
2019-01-21T19:54:00.010Z,-4.10
2019-01-21T19:56:28.251Z,-4.10
2019-01-21T19:58:56.529Z,-4.10
2019-01-21T20:01:24.771Z,-4.00
2019-01-21T20:03:53.027Z,-4.10
2019-01-21T20:06:21.276Z,-4.10
2019-01-21T20:08:49.561Z,-4.00
2019-01-21T20:11:17.791Z,-4.10
2019-01-21T20:13:46.962Z,-4.10
2019-01-21T20:16:15.868Z,-4.20
2019-01-21T20:18:44.114Z,-4.20
2019-01-21T20:21:12.366Z,-4.10
2019-01-21T20:23:40.634Z,-4.10
2019-01-21T20:26:08.955Z,-4.10
2019-01-21T20:28:37.204Z,-4.10
2019-01-21T20:31:05.455Z,-4.10
2019-01-21T20:33:33.727Z,-4.00
2019-01-21T20:36:01.969Z,-3.10
2019-01-21T20:38:30.239Z,-3.00
2019-01-21T20:40:58.475Z,-3.50
2019-01-21T20:43:26.750Z,-3.70
2019-01-21T20:45:55.000Z,-3.90
2019-01-21T20:48:23.262Z,-4.10
2019-01-21T20:50:51.527Z,-4.10
2019-01-21T20:53:19.841Z,-4.10
2019-01-21T20:55:48.085Z,-4.20
2019-01-21T20:58:16.331Z,-4.20
2019-01-21T21:00:44.579Z,-4.20
2019-01-21T21:03:12.839Z,-4.20
2019-01-21T21:05:41.087Z,-4.30
2019-01-21T21:08:09.363Z,-4.30
2019-01-21T21:10:37.671Z,-4.40
2019-01-21T21:13:05.969Z,-4.50
2019-01-21T21:15:34.281Z,-4.40
2019-01-21T21:18:02.547Z,-4.50
2019-01-21T21:20:32.538Z,-4.50
2019-01-21T21:23:00.869Z,-4.60
2019-01-21T21:25:29.120Z,-4.60
2019-01-21T21:27:57.394Z,-4.60
2019-01-21T21:30:30.380Z,-4.70
2019-01-21T21:32:58.649Z,-4.70
2019-01-21T21:35:27.799Z,-4.80
2019-01-21T21:37:56.114Z,-4.80
2019-01-21T21:40:24.361Z,-4.80
2019-01-21T21:42:52.693Z,-4.80
2019-01-21T21:45:21.951Z,-4.80
2019-01-21T21:47:50.659Z,-4.80
2019-01-21T21:50:29.906Z,-4.80
2019-01-21T21:52:58.163Z,-4.70
2019-01-21T21:55:26.413Z,-4.70
2019-01-21T21:57:54.678Z,-4.70
2019-01-21T22:00:25.345Z,-4.70
2019-01-21T22:02:53.682Z,-4.50
2019-01-21T22:05:21.931Z,-4.60
2019-01-21T22:07:50.218Z,-4.60
2019-01-21T22:10:24.164Z,-4.70
2019-01-21T22:12:52.639Z,-4.70
2019-01-21T22:15:22.223Z,-4.70
2019-01-21T22:17:50.542Z,-4.70
2019-01-21T22:20:20.727Z,-4.70
2019-01-21T22:22:48.995Z,-4.70
2019-01-21T22:25:17.621Z,-4.70
2019-01-21T22:27:46.168Z,-4.70
2019-01-21T22:30:22.034Z,-4.80
2019-01-21T22:32:50.300Z,-4.80
2019-01-21T22:35:18.553Z,-4.80
2019-01-21T22:37:47.078Z,-4.90
2019-01-21T22:40:18.859Z,-4.90
2019-01-21T22:42:47.194Z,-4.90
2019-01-21T22:45:17.151Z,-5.00
2019-01-21T22:47:46.210Z,-5.00
2019-01-21T22:50:16.462Z,-5.00
2019-01-21T22:52:44.809Z,-5.00
2019-01-21T22:55:14.432Z,-5.00
2019-01-21T22:57:42.714Z,-5.00
2019-01-21T23:00:16.842Z,-5.00
2019-01-21T23:02:46.089Z,-4.90
2019-01-21T23:05:14.344Z,-4.90
2019-01-21T23:07:42.611Z,-4.80
2019-01-21T23:10:10.867Z,-4.80
2019-01-21T23:12:39.108Z,-4.70
2019-01-21T23:15:08.135Z,-4.70
2019-01-21T23:17:36.429Z,-4.80
2019-01-21T23:20:07.817Z,-4.90
2019-01-21T23:22:36.060Z,-4.90
2019-01-21T23:25:04.856Z,-4.90
2019-01-21T23:27:33.115Z,-4.90
2019-01-21T23:30:01.363Z,-5.00
2019-01-21T23:32:29.613Z,-5.10
2019-01-21T23:34:57.886Z,-5.00
2019-01-21T23:37:26.222Z,-5.00
2019-01-21T23:39:54.554Z,-5.10
2019-01-21T23:42:23.275Z,-5.10
2019-01-21T23:44:51.629Z,-5.20
2019-01-21T23:47:19.910Z,-5.20
2019-01-21T23:49:48.182Z,-5.20
2019-01-21T23:52:16.442Z,-5.30
2019-01-21T23:54:44.723Z,-5.30
2019-01-21T23:57:13.357Z,-5.30
2019-01-21T23:59:41.687Z,-5.40
